RCTP/TPE METAR and TAF weather

Enter ICAO airport designator
Station Type Date Time Source
RCTP METAR 2020/02/25 11:30 UTC NOAA

RCTP 251130Z 12003KT 060V210 9999 FEW015 19/17 Q1017 NOSIG RMK A3005


Station Type Date Time Source
RCTP Decoded METAR 2020/02/25 11:30 UTC NOAA

Chiang Kai Shek, Taiwan (RCTP) 25-05N 121-13E
Feb 25, 2020 - 06:30 AM EST / 2020.02.25 1130 UTC
Wind: from the ESE (120 degrees) at 3 MPH (3 KT) (direction variable):0
Visibility: greater than 7 mile(s):0
Sky conditions: mostly clear
Temperature: 66 F (19 C)
Dew Point: 62 F (17 C)
Relative Humidity: 88%
Pressure (altimeter): 30.03 in. Hg (1017 hPa)
ob: RCTP 251130Z 12003KT 060V210 9999 FEW015 19/17 Q1017 NOSIG RMK A3005
cycle: 11

Station Type Date Time Source
RCTP TAF 2020/02/25 12:13 UTC NOAA

TAF RCTP 251100Z 2512/2618 14005KT 9999 FEW015
BECMG 2514/2516 7000 FEW015 BKN032
TEMPO 2518/2522 19005KT 4000 BR FEW012 BKN017
TEMPO 2522/2603 35005KT 2000 BR FEW008 BKN014
BECMG 2603/2605 01005KT SCT005 BKN011
TEMPO 2605/2611 04010KT SCT003 BKN005
BECMG 2611/2613 05015KT
TEMPO 2611/2617 SCT004 BKN006

Example: see airport list